首页
METAR-TAF:

METAR-TAF

机场 :

巨港, 印度尼西亚

纬度: 02-54S, 经度: 104-42E, 海拔: 10米

当前天气观测

该预报发布于45分钟前的02:30 UTC
风速2节,风向多变
温度 30°C
湿度 79%
气压 1011 hPa
能見度: 8000
散云层高于1000英尺

METAR: WIPP 140230Z VRB02KT 8000 SCT010 30/26 Q1011 NOSIG

时间: 10:15 (03:15 UTC)

预报

该预报发布于4小时和15分钟前的23:00 UTC
预报有效从14日的 00点(UTC)到 14日的 24点(UTC)
风速8节,风向南转南东
能见度10公里或以上
散云层高于1000英尺
短暂存在
从 14日的 10点(UTC)到 14日的 14点(UTC)
能見度: 3000
少量云层高于1000英尺, 积雨云.
多云层高于1000英尺
短暂存在
从 14日的 20点(UTC)到 14日的 24点(UTC)
能見度: 2000
轻雾,

TAF: WIPP 132300Z 1400/1424 16008KT 9999 SCT010 TEMPO 1410/1414 3000 RA FEW010CB BKN010 TEMPO 1420/1424 2000 BR

超过4000个机场的气象观测和天气预报(METAR&TAF报告)。

可查询的气象台以黄色和红色小点在地图上表示。

将鼠标移到小点上方,可查看气象台名称。

然后点击查看天气观测和预报。

如需切换地图:点击带黑十字的绿色按钮放大地图;点击带横线的绿色按钮缩小地图;或者点击绿色箭头查看邻近地区的地图。


METAR-TAF: